CYBW/YBW METAR and TAF weather

Enter ICAO airport designator
Station Type Date Time Source
CYBW METAR 2020/09/22 08:00 UTC NOAA

CYBW 220800Z AUTO 31005KT 9SM BKN130 OVC150 07/05 A3000 RMK SLP165


Station Type Date Time Source
CYBW Decoded METAR 2020/09/22 08:00 UTC NOAA

Calgary / Springbank, Canada (CYBW) 51-06N 114-22W
Sep 22, 2020 - 04:00 AM EDT / 2020.09.22 0800 UTC
Wind: from the NW (310 degrees) at 6 MPH (5 KT):0
Visibility: 9 mile(s):0
Sky conditions: overcast
Temperature: 44 F (7 C)
Dew Point: 41 F (5 C)
Relative Humidity: 87%
Pressure (altimeter): 30 in. Hg (1015 hPa)
ob: CYBW 220800Z AUTO 31005KT 9SM BKN130 OVC150 07/05 A3000 RMK SLP165
cycle: 8

Station Type Date Time Source
CYBW TAF 2020/09/21 18:00 UTC NOAA

TAF CYBW 211738Z 2118/2204 VRB03KT P6SM FEW200
BECMG 2122/2124 12008KT
FM220000 12008KT P6SM SCT080 BKN150
BECMG 2202/2204 36008KT
RMK FCST BASED ON AUTO OBS. NXT FCST BY 220000Z

Example: see airport list